sensor_id;sensor_type;location;lat;lon;timestamp;P1;durP1;ratioP1;P2;durP2;ratioP2
21170;SDS011;10743;52.160;20.910;2022-12-18T00:01:20;156.60;;;59.63;;
21170;SDS011;10743;52.160;20.910;2022-12-18T00:03:52;160.70;;;60.87;;
21170;SDS011;10743;52.160;20.910;2022-12-18T00:06:22;151.00;;;55.73;;
21170;SDS011;10743;52.160;20.910;2022-12-18T00:08:51;153.80;;;57.77;;
21170;SDS011;10743;52.160;20.910;2022-12-18T00:11:20;157.13;;;57.63;;
21170;SDS011;10743;52.160;20.910;2022-12-18T00:13:49;166.20;;;61.87;;
21170;SDS011;10743;52.160;20.910;2022-12-18T00:16:18;488.13;;;166.20;;
21170;SDS011;10743;52.160;20.910;2022-12-18T00:18:47;542.70;;;189.70;;
21170;SDS011;10743;52.160;20.910;2022-12-18T00:21:16;519.43;;;182.23;;
21170;SDS011;10743;52.160;20.910;2022-12-18T00:23:44;686.93;;;263.63;;
21170;SDS011;10743;52.160;20.910;2022-12-18T00:26:12;599.13;;;227.97;;
21170;SDS011;10743;52.160;20.910;2022-12-18T00:28:48;558.40;;;208.90;;
21170;SDS011;10743;52.160;20.910;2022-12-18T00:31:16;322.17;;;118.40;;
21170;SDS011;10743;52.160;20.910;2022-12-18T00:33:47;257.70;;;98.83;;
21170;SDS011;10743;52.160;20.910;2022-12-18T00:36:20;312.70;;;124.17;;
21170;SDS011;10743;52.160;20.910;2022-12-18T00:38:56;191.30;;;73.83;;
21170;SDS011;10743;52.160;20.910;2022-12-18T00:41:24;168.40;;;64.10;;
21170;SDS011;10743;52.160;20.910;2022-12-18T00:44:12;155.80;;;58.03;;
21170;SDS011;10743;52.160;20.910;2022-12-18T00:46:42;181.30;;;68.60;;
21170;SDS011;10743;52.160;20.910;2022-12-18T00:49:10;188.93;;;73.27;;
21170;SDS011;10743;52.160;20.910;2022-12-18T00:51:37;275.20;;;99.13;;
21170;SDS011;10743;52.160;20.910;2022-12-18T00:54:05;442.70;;;151.20;;
21170;SDS011;10743;52.160;20.910;2022-12-18T00:56:32;387.37;;;142.53;;
21170;SDS011;10743;52.160;20.910;2022-12-18T00:59:13;243.27;;;92.17;;
21170;SDS011;10743;52.160;20.910;2022-12-18T01:01:41;176.93;;;66.67;;
21170;SDS011;10743;52.160;20.910;2022-12-18T01:04:09;158.37;;;57.17;;
21170;SDS011;10743;52.160;20.910;2022-12-18T01:06:36;159.57;;;57.13;;
21170;SDS011;10743;52.160;20.910;2022-12-18T01:09:03;159.83;;;56.30;;
21170;SDS011;10743;52.160;20.910;2022-12-18T01:11:30;157.83;;;56.53;;
21170;SDS011;10743;52.160;20.910;2022-12-18T01:13:59;152.07;;;55.83;;
21170;SDS011;10743;52.160;20.910;2022-12-18T01:16:26;157.20;;;56.03;;
21170;SDS011;10743;52.160;20.910;2022-12-18T01:18:55;157.60;;;59.30;;
21170;SDS011;10743;52.160;20.910;2022-12-18T01:21:22;149.73;;;57.03;;
21170;SDS011;10743;52.160;20.910;2022-12-18T01:23:51;152.93;;;57.57;;
21170;SDS011;10743;52.160;20.910;2022-12-18T01:26:22;152.97;;;55.70;;
21170;SDS011;10743;52.160;20.910;2022-12-18T01:28:51;152.53;;;55.67;;
21170;SDS011;10743;52.160;20.910;2022-12-18T01:31:29;154.03;;;56.37;;
21170;SDS011;10743;52.160;20.910;2022-12-18T01:34:01;149.77;;;55.50;;
21170;SDS011;10743;52.160;20.910;2022-12-18T01:36:31;154.27;;;56.47;;
21170;SDS011;10743;52.160;20.910;2022-12-18T01:39:03;156.83;;;55.40;;
21170;SDS011;10743;52.160;20.910;2022-12-18T01:41:37;156.73;;;56.03;;
21170;SDS011;10743;52.160;20.910;2022-12-18T01:50:15;153.57;;;54.90;;
21170;SDS011;10743;52.160;20.910;2022-12-18T01:52:43;153.53;;;54.83;;
21170;SDS011;10743;52.160;20.910;2022-12-18T01:55:15;148.10;;;54.53;;
21170;SDS011;10743;52.160;20.910;2022-12-18T01:57:45;157.87;;;55.47;;
21170;SDS011;10743;52.160;20.910;2022-12-18T02:00:14;150.87;;;53.90;;
21170;SDS011;10743;52.160;20.910;2022-12-18T02:02:45;152.63;;;54.50;;
21170;SDS011;10743;52.160;20.910;2022-12-18T02:05:15;153.97;;;55.23;;
21170;SDS011;10743;52.160;20.910;2022-12-18T02:07:59;156.43;;;55.53;;
21170;SDS011;10743;52.160;20.910;2022-12-18T02:10:46;158.07;;;54.47;;
21170;SDS011;10743;52.160;20.910;2022-12-18T02:16:41;156.10;;;54.53;;
21170;SDS011;10743;52.160;20.910;2022-12-18T02:25:20;202.00;;;75.00;;
21170;SDS011;10743;52.160;20.910;2022-12-18T02:28:21;451.73;;;156.13;;
21170;SDS011;10743;52.160;20.910;2022-12-18T02:30:54;500.27;;;174.00;;
21170;SDS011;10743;52.160;20.910;2022-12-18T02:33:27;254.40;;;94.13;;
21170;SDS011;10743;52.160;20.910;2022-12-18T02:35:56;326.90;;;126.67;;
21170;SDS011;10743;52.160;20.910;2022-12-18T02:38:26;222.97;;;87.73;;
21170;SDS011;10743;52.160;20.910;2022-12-18T02:41:00;162.63;;;58.53;;
21170;SDS011;10743;52.160;20.910;2022-12-18T02:43:30;171.67;;;59.57;;
21170;SDS011;10743;52.160;20.910;2022-12-18T02:45:59;153.47;;;57.10;;
21170;SDS011;10743;52.160;20.910;2022-12-18T02:48:33;158.37;;;58.47;;
21170;SDS011;10743;52.160;20.910;2022-12-18T02:51:08;150.73;;;56.13;;
21170;SDS011;10743;52.160;20.910;2022-12-18T02:54:15;151.30;;;55.57;;
21170;SDS011;10743;52.160;20.910;2022-12-18T02:56:54;161.37;;;57.57;;
21170;SDS011;10743;52.160;20.910;2022-12-18T02:59:28;154.67;;;55.47;;
21170;SDS011;10743;52.160;20.910;2022-12-18T03:02:23;157.73;;;56.73;;
21170;SDS011;10743;52.160;20.910;2022-12-18T03:07:39;155.07;;;55.40;;
21170;SDS011;10743;52.160;20.910;2022-12-18T03:10:14;154.87;;;55.53;;
21170;SDS011;10743;52.160;20.910;2022-12-18T03:13:12;156.43;;;55.33;;
21170;SDS011;10743;52.160;20.910;2022-12-18T03:15:48;160.23;;;55.80;;
21170;SDS011;10743;52.160;20.910;2022-12-18T03:18:24;160.47;;;54.97;;
21170;SDS011;10743;52.160;20.910;2022-12-18T03:20:56;157.63;;;55.90;;
21170;SDS011;10743;52.160;20.910;2022-12-18T03:23:29;160.07;;;55.87;;
21170;SDS011;10743;52.160;20.910;2022-12-18T03:26:05;158.30;;;55.90;;
21170;SDS011;10743;52.160;20.910;2022-12-18T03:28:49;159.93;;;55.10;;
21170;SDS011;10743;52.160;20.910;2022-12-18T03:31:21;155.77;;;55.47;;
21170;SDS011;10743;52.160;20.910;2022-12-18T03:33:54;159.93;;;55.77;;
21170;SDS011;10743;52.160;20.910;2022-12-18T03:36:32;155.70;;;54.87;;
21170;SDS011;10743;52.160;20.910;2022-12-18T03:39:00;161.23;;;55.70;;
21170;SDS011;10743;52.160;20.910;2022-12-18T03:41:29;160.10;;;56.73;;
21170;SDS011;10743;52.160;20.910;2022-12-18T03:44:47;382.80;;;128.30;;
21170;SDS011;10743;52.160;20.910;2022-12-18T03:47:28;367.30;;;127.53;;
21170;SDS011;10743;52.160;20.910;2022-12-18T03:50:18;238.60;;;84.60;;
21170;SDS011;10743;52.160;20.910;2022-12-18T03:53:22;269.17;;;99.70;;
21170;SDS011;10743;52.160;20.910;2022-12-18T03:56:02;190.43;;;70.00;;
21170;SDS011;10743;52.160;20.910;2022-12-18T03:58:36;336.53;;;124.00;;
21170;SDS011;10743;52.160;20.910;2022-12-18T04:01:15;241.90;;;94.00;;
21170;SDS011;10743;52.160;20.910;2022-12-18T04:03:44;268.33;;;101.17;;
21170;SDS011;10743;52.160;20.910;2022-12-18T04:06:18;297.40;;;116.40;;
21170;SDS011;10743;52.160;20.910;2022-12-18T04:08:45;199.27;;;79.00;;
21170;SDS011;10743;52.160;20.910;2022-12-18T04:11:16;234.70;;;94.57;;
21170;SDS011;10743;52.160;20.910;2022-12-18T04:13:45;201.67;;;82.50;;
21170;SDS011;10743;52.160;20.910;2022-12-18T04:16:22;164.60;;;61.03;;
21170;SDS011;10743;52.160;20.910;2022-12-18T04:18:54;156.67;;;56.43;;
21170;SDS011;10743;52.160;20.910;2022-12-18T04:21:23;155.63;;;56.43;;
21170;SDS011;10743;52.160;20.910;2022-12-18T04:23:51;151.83;;;54.60;;
21170;SDS011;10743;52.160;20.910;2022-12-18T04:26:20;160.90;;;58.00;;
21170;SDS011;10743;52.160;20.910;2022-12-18T04:29:08;163.60;;;59.27;;
21170;SDS011;10743;52.160;20.910;2022-12-18T04:31:36;159.50;;;56.70;;
21170;SDS011;10743;52.160;20.910;2022-12-18T04:34:03;155.77;;;55.00;;
21170;SDS011;10743;52.160;20.910;2022-12-18T04:36:37;157.10;;;55.23;;
21170;SDS011;10743;52.160;20.910;2022-12-18T04:39:04;160.43;;;57.27;;
21170;SDS011;10743;52.160;20.910;2022-12-18T04:41:31;162.57;;;60.23;;
21170;SDS011;10743;52.160;20.910;2022-12-18T04:43:59;164.50;;;59.57;;
21170;SDS011;10743;52.160;20.910;2022-12-18T04:46:26;161.83;;;59.67;;
21170;SDS011;10743;52.160;20.910;2022-12-18T04:48:53;167.70;;;62.67;;
21170;SDS011;10743;52.160;20.910;2022-12-18T04:51:20;158.23;;;57.50;;
21170;SDS011;10743;52.160;20.910;2022-12-18T04:53:52;160.27;;;58.70;;
21170;SDS011;10743;52.160;20.910;2022-12-18T04:56:19;161.10;;;58.03;;
21170;SDS011;10743;52.160;20.910;2022-12-18T04:58:47;161.27;;;59.53;;
21170;SDS011;10743;52.160;20.910;2022-12-18T05:01:15;161.27;;;61.37;;
21170;SDS011;10743;52.160;20.910;2022-12-18T05:03:44;162.27;;;62.53;;
21170;SDS011;10743;52.160;20.910;2022-12-18T05:06:11;181.27;;;68.07;;
21170;SDS011;10743;52.160;20.910;2022-12-18T05:08:38;161.93;;;58.17;;
21170;SDS011;10743;52.160;20.910;2022-12-18T05:11:07;169.47;;;61.87;;
21170;SDS011;10743;52.160;20.910;2022-12-18T05:13:36;161.47;;;60.43;;
21170;SDS011;10743;52.160;20.910;2022-12-18T05:16:05;160.80;;;59.03;;
21170;SDS011;10743;52.160;20.910;2022-12-18T05:18:33;166.00;;;60.53;;
21170;SDS011;10743;52.160;20.910;2022-12-18T05:21:01;160.73;;;58.50;;
21170;SDS011;10743;52.160;20.910;2022-12-18T05:23:28;155.57;;;56.57;;
21170;SDS011;10743;52.160;20.910;2022-12-18T05:25:56;162.03;;;58.43;;
21170;SDS011;10743;52.160;20.910;2022-12-18T05:28:28;160.67;;;57.33;;
21170;SDS011;10743;52.160;20.910;2022-12-18T05:30:58;156.37;;;57.07;;
21170;SDS011;10743;52.160;20.910;2022-12-18T05:33:28;156.87;;;56.73;;
21170;SDS011;10743;52.160;20.910;2022-12-18T05:35:59;166.97;;;56.53;;
21170;SDS011;10743;52.160;20.910;2022-12-18T05:38:28;156.00;;;55.80;;
21170;SDS011;10743;52.160;20.910;2022-12-18T05:40:56;158.10;;;56.17;;
21170;SDS011;10743;52.160;20.910;2022-12-18T05:43:24;156.40;;;56.57;;
21170;SDS011;10743;52.160;20.910;2022-12-18T05:45:53;161.60;;;56.23;;
21170;SDS011;10743;52.160;20.910;2022-12-18T05:48:21;161.40;;;56.20;;
21170;SDS011;10743;52.160;20.910;2022-12-18T05:50:49;152.70;;;55.63;;
21170;SDS011;10743;52.160;20.910;2022-12-18T05:53:18;153.13;;;54.83;;
21170;SDS011;10743;52.160;20.910;2022-12-18T05:55:46;159.90;;;57.23;;
21170;SDS011;10743;52.160;20.910;2022-12-18T05:58:14;154.67;;;56.33;;
21170;SDS011;10743;52.160;20.910;2022-12-18T06:00:42;166.63;;;57.63;;
21170;SDS011;10743;52.160;20.910;2022-12-18T06:03:12;169.67;;;60.27;;
21170;SDS011;10743;52.160;20.910;2022-12-18T06:05:41;162.77;;;56.77;;
21170;SDS011;10743;52.160;20.910;2022-12-18T06:08:10;158.37;;;56.03;;
21170;SDS011;10743;52.160;20.910;2022-12-18T06:10:39;160.90;;;57.90;;
21170;SDS011;10743;52.160;20.910;2022-12-18T06:13:07;160.03;;;56.40;;
21170;SDS011;10743;52.160;20.910;2022-12-18T06:15:37;154.90;;;57.40;;
21170;SDS011;10743;52.160;20.910;2022-12-18T06:18:04;164.47;;;56.90;;
21170;SDS011;10743;52.160;20.910;2022-12-18T06:20:31;159.07;;;58.03;;
21170;SDS011;10743;52.160;20.910;2022-12-18T06:22:59;161.97;;;57.27;;
21170;SDS011;10743;52.160;20.910;2022-12-18T06:25:26;160.73;;;57.30;;
21170;SDS011;10743;52.160;20.910;2022-12-18T06:27:53;159.43;;;58.30;;
21170;SDS011;10743;52.160;20.910;2022-12-18T06:30:22;162.10;;;57.43;;
21170;SDS011;10743;52.160;20.910;2022-12-18T06:32:49;154.23;;;56.80;;
21170;SDS011;10743;52.160;20.910;2022-12-18T06:35:22;153.17;;;55.80;;
21170;SDS011;10743;52.160;20.910;2022-12-18T06:37:49;157.30;;;57.17;;
21170;SDS011;10743;52.160;20.910;2022-12-18T06:40:16;162.90;;;58.43;;
21170;SDS011;10743;52.160;20.910;2022-12-18T06:42:43;169.03;;;63.77;;
21170;SDS011;10743;52.160;20.910;2022-12-18T06:45:10;174.00;;;62.87;;
21170;SDS011;10743;52.160;20.910;2022-12-18T06:47:37;171.43;;;60.93;;
21170;SDS011;10743;52.160;20.910;2022-12-18T06:50:04;162.67;;;57.87;;
21170;SDS011;10743;52.160;20.910;2022-12-18T06:52:33;174.10;;;61.67;;
21170;SDS011;10743;52.160;20.910;2022-12-18T06:55:00;187.40;;;71.43;;
21170;SDS011;10743;52.160;20.910;2022-12-18T06:57:27;186.10;;;66.57;;
21170;SDS011;10743;52.160;20.910;2022-12-18T06:59:54;165.33;;;61.50;;
21170;SDS011;10743;52.160;20.910;2022-12-18T07:02:21;184.33;;;67.73;;
21170;SDS011;10743;52.160;20.910;2022-12-18T07:04:48;186.20;;;69.43;;
21170;SDS011;10743;52.160;20.910;2022-12-18T07:07:15;255.43;;;176.30;;
21170;SDS011;10743;52.160;20.910;2022-12-18T07:09:42;265.30;;;184.20;;
21170;SDS011;10743;52.160;20.910;2022-12-18T07:12:09;217.20;;;125.33;;
21170;SDS011;10743;52.160;20.910;2022-12-18T07:14:36;245.17;;;143.37;;
21170;SDS011;10743;52.160;20.910;2022-12-18T07:17:03;168.73;;;65.40;;
21170;SDS011;10743;52.160;20.910;2022-12-18T07:19:31;173.20;;;63.53;;
21170;SDS011;10743;52.160;20.910;2022-12-18T07:21:59;166.27;;;60.13;;
21170;SDS011;10743;52.160;20.910;2022-12-18T07:24:27;199.17;;;76.63;;
21170;SDS011;10743;52.160;20.910;2022-12-18T07:26:54;262.87;;;98.70;;
21170;SDS011;10743;52.160;20.910;2022-12-18T07:29:21;209.43;;;90.27;;
21170;SDS011;10743;52.160;20.910;2022-12-18T07:31:48;198.77;;;98.77;;
21170;SDS011;10743;52.160;20.910;2022-12-18T07:34:15;197.77;;;95.97;;
21170;SDS011;10743;52.160;20.910;2022-12-18T07:36:43;181.67;;;69.43;;
21170;SDS011;10743;52.160;20.910;2022-12-18T07:39:10;181.53;;;84.37;;
21170;SDS011;10743;52.160;20.910;2022-12-18T07:41:38;186.47;;;86.37;;
21170;SDS011;10743;52.160;20.910;2022-12-18T07:44:14;179.27;;;68.87;;
21170;SDS011;10743;52.160;20.910;2022-12-18T07:46:41;251.67;;;200.97;;
21170;SDS011;10743;52.160;20.910;2022-12-18T07:49:08;240.63;;;172.00;;
21170;SDS011;10743;52.160;20.910;2022-12-18T07:51:35;273.43;;;241.07;;
21170;SDS011;10743;52.160;20.910;2022-12-18T07:54:02;237.03;;;207.80;;
21170;SDS011;10743;52.160;20.910;2022-12-18T07:56:29;205.07;;;97.10;;
21170;SDS011;10743;52.160;20.910;2022-12-18T07:58:57;165.73;;;59.00;;
21170;SDS011;10743;52.160;20.910;2022-12-18T08:01:25;200.33;;;104.33;;
21170;SDS011;10743;52.160;20.910;2022-12-18T08:03:53;199.00;;;100.37;;
21170;SDS011;10743;52.160;20.910;2022-12-18T08:06:20;199.67;;;89.27;;
21170;SDS011;10743;52.160;20.910;2022-12-18T08:08:53;170.03;;;67.87;;
21170;SDS011;10743;52.160;20.910;2022-12-18T08:11:21;234.00;;;134.67;;
21170;SDS011;10743;52.160;20.910;2022-12-18T08:13:50;209.93;;;97.23;;
21170;SDS011;10743;52.160;20.910;2022-12-18T08:16:18;228.37;;;131.97;;
21170;SDS011;10743;52.160;20.910;2022-12-18T08:18:46;202.53;;;95.70;;
21170;SDS011;10743;52.160;20.910;2022-12-18T08:21:15;223.27;;;111.10;;
21170;SDS011;10743;52.160;20.910;2022-12-18T08:23:47;196.10;;;86.60;;
21170;SDS011;10743;52.160;20.910;2022-12-18T08:26:17;174.53;;;63.37;;
21170;SDS011;10743;52.160;20.910;2022-12-18T08:28:46;289.90;;;218.30;;
21170;SDS011;10743;52.160;20.910;2022-12-18T08:31:13;222.63;;;129.53;;
21170;SDS011;10743;52.160;20.910;2022-12-18T08:33:40;229.97;;;133.93;;
21170;SDS011;10743;52.160;20.910;2022-12-18T08:36:09;288.33;;;176.00;;
21170;SDS011;10743;52.160;20.910;2022-12-18T08:38:36;264.17;;;168.57;;
21170;SDS011;10743;52.160;20.910;2022-12-18T08:41:10;224.70;;;147.73;;
21170;SDS011;10743;52.160;20.910;2022-12-18T08:43:39;193.30;;;115.83;;
21170;SDS011;10743;52.160;20.910;2022-12-18T08:46:26;198.53;;;129.13;;
21170;SDS011;10743;52.160;20.910;2022-12-18T08:48:58;232.00;;;147.13;;
21170;SDS011;10743;52.160;20.910;2022-12-18T08:51:26;262.13;;;181.07;;
21170;SDS011;10743;52.160;20.910;2022-12-18T08:53:53;204.13;;;92.93;;
21170;SDS011;10743;52.160;20.910;2022-12-18T08:56:20;201.37;;;108.63;;
21170;SDS011;10743;52.160;20.910;2022-12-18T08:58:47;177.73;;;69.87;;
21170;SDS011;10743;52.160;20.910;2022-12-18T09:01:14;188.13;;;83.33;;
21170;SDS011;10743;52.160;20.910;2022-12-18T09:03:41;248.87;;;153.37;;
21170;SDS011;10743;52.160;20.910;2022-12-18T09:06:09;276.83;;;200.23;;
21170;SDS011;10743;52.160;20.910;2022-12-18T09:08:42;233.90;;;161.97;;
21170;SDS011;10743;52.160;20.910;2022-12-18T09:11:15;210.27;;;122.70;;
21170;SDS011;10743;52.160;20.910;2022-12-18T09:13:51;202.83;;;100.07;;
21170;SDS011;10743;52.160;20.910;2022-12-18T09:16:20;237.60;;;147.03;;
21170;SDS011;10743;52.160;20.910;2022-12-18T09:18:57;343.27;;;289.33;;
21170;SDS011;10743;52.160;20.910;2022-12-18T09:21:27;310.90;;;230.33;;
21170;SDS011;10743;52.160;20.910;2022-12-18T09:24:02;227.27;;;137.50;;
21170;SDS011;10743;52.160;20.910;2022-12-18T09:26:33;272.03;;;199.00;;
21170;SDS011;10743;52.160;20.910;2022-12-18T09:29:00;257.30;;;208.83;;
21170;SDS011;10743;52.160;20.910;2022-12-18T09:31:29;243.03;;;181.63;;
21170;SDS011;10743;52.160;20.910;2022-12-18T09:33:56;214.30;;;106.50;;
21170;SDS011;10743;52.160;20.910;2022-12-18T09:36:24;201.97;;;108.30;;
21170;SDS011;10743;52.160;20.910;2022-12-18T09:38:51;230.23;;;139.13;;
21170;SDS011;10743;52.160;20.910;2022-12-18T09:44:18;318.83;;;232.37;;
21170;SDS011;10743;52.160;20.910;2022-12-18T09:49:28;232.07;;;139.83;;
21170;SDS011;10743;52.160;20.910;2022-12-18T09:52:05;286.33;;;187.60;;
21170;SDS011;10743;52.160;20.910;2022-12-18T09:54:44;207.47;;;115.83;;
21170;SDS011;10743;52.160;20.910;2022-12-18T09:57:18;201.13;;;114.27;;
21170;SDS011;10743;52.160;20.910;2022-12-18T10:00:01;266.83;;;189.43;;
21170;SDS011;10743;52.160;20.910;2022-12-18T10:02:51;222.67;;;107.53;;
21170;SDS011;10743;52.160;20.910;2022-12-18T10:08:46;184.50;;;79.77;;
21170;SDS011;10743;52.160;20.910;2022-12-18T10:22:19;224.50;;;109.37;;
21170;SDS011;10743;52.160;20.910;2022-12-18T10:25:15;274.63;;;183.73;;
21170;SDS011;10743;52.160;20.910;2022-12-18T10:27:50;204.00;;;85.27;;
21170;SDS011;10743;52.160;20.910;2022-12-18T10:30:23;308.10;;;189.97;;
21170;SDS011;10743;52.160;20.910;2022-12-18T10:32:52;229.57;;;124.37;;
21170;SDS011;10743;52.160;20.910;2022-12-18T10:35:21;224.93;;;120.03;;
21170;SDS011;10743;52.160;20.910;2022-12-18T10:40:58;265.77;;;167.47;;
21170;SDS011;10743;52.160;20.910;2022-12-18T10:43:32;224.53;;;127.83;;
21170;SDS011;10743;52.160;20.910;2022-12-18T10:48:50;280.73;;;180.03;;
21170;SDS011;10743;52.160;20.910;2022-12-18T10:51:24;225.70;;;127.07;;
21170;SDS011;10743;52.160;20.910;2022-12-18T10:56:49;347.33;;;259.40;;
21170;SDS011;10743;52.160;20.910;2022-12-18T10:59:17;295.50;;;229.73;;
21170;SDS011;10743;52.160;20.910;2022-12-18T11:01:51;225.00;;;148.13;;
21170;SDS011;10743;52.160;20.910;2022-12-18T11:04:24;277.33;;;178.63;;
21170;SDS011;10743;52.160;20.910;2022-12-18T11:06:58;194.60;;;84.53;;
21170;SDS011;10743;52.160;20.910;2022-12-18T11:09:34;228.03;;;137.30;;
21170;SDS011;10743;52.160;20.910;2022-12-18T11:12:04;332.33;;;289.63;;
21170;SDS011;10743;52.160;20.910;2022-12-18T11:14:53;179.07;;;67.67;;
21170;SDS011;10743;52.160;20.910;2022-12-18T11:17:29;183.30;;;76.20;;
21170;SDS011;10743;52.160;20.910;2022-12-18T11:20:02;206.33;;;108.77;;
21170;SDS011;10743;52.160;20.910;2022-12-18T11:22:33;205.83;;;77.80;;
21170;SDS011;10743;52.160;20.910;2022-12-18T11:25:06;237.17;;;145.03;;
21170;SDS011;10743;52.160;20.910;2022-12-18T11:28:00;252.77;;;180.67;;
21170;SDS011;10743;52.160;20.910;2022-12-18T11:30:37;206.53;;;108.30;;
21170;SDS011;10743;52.160;20.910;2022-12-18T11:33:19;203.67;;;93.90;;
21170;SDS011;10743;52.160;20.910;2022-12-18T11:35:58;196.77;;;103.33;;
21170;SDS011;10743;52.160;20.910;2022-12-18T11:38:35;226.37;;;142.27;;
21170;SDS011;10743;52.160;20.910;2022-12-18T11:43:55;206.80;;;106.00;;
21170;SDS011;10743;52.160;20.910;2022-12-18T11:46:33;198.20;;;104.53;;
21170;SDS011;10743;52.160;20.910;2022-12-18T11:49:32;236.93;;;113.80;;
21170;SDS011;10743;52.160;20.910;2022-12-18T11:52:03;226.97;;;126.27;;
21170;SDS011;10743;52.160;20.910;2022-12-18T11:54:40;179.87;;;75.70;;
21170;SDS011;10743;52.160;20.910;2022-12-18T12:00:31;218.33;;;141.93;;
21170;SDS011;10743;52.160;20.910;2022-12-18T12:12:19;261.53;;;175.10;;
21170;SDS011;10743;52.160;20.910;2022-12-18T12:15:27;207.80;;;62.40;;
21170;SDS011;10743;52.160;20.910;2022-12-18T12:21:03;49.87;;;18.53;;
21170;SDS011;10743;52.160;20.910;2022-12-18T12:26:38;48.60;;;17.17;;
21170;SDS011;10743;52.160;20.910;2022-12-18T12:32:32;67.43;;;23.50;;
21170;SDS011;10743;52.160;20.910;2022-12-18T12:38:26;54.93;;;20.97;;
21170;SDS011;10743;52.160;20.910;2022-12-18T12:41:18;55.07;;;20.70;;
21170;SDS011;10743;52.160;20.910;2022-12-18T12:44:13;55.20;;;22.17;;
21170;SDS011;10743;52.160;20.910;2022-12-18T12:46:46;59.17;;;23.70;;
21170;SDS011;10743;52.160;20.910;2022-12-18T12:49:15;62.10;;;21.10;;
21170;SDS011;10743;52.160;20.910;2022-12-18T12:51:59;64.90;;;23.00;;
21170;SDS011;10743;52.160;20.910;2022-12-18T12:55:04;70.70;;;27.70;;
21170;SDS011;10743;52.160;20.910;2022-12-18T12:57:40;61.70;;;24.27;;
21170;SDS011;10743;52.160;20.910;2022-12-18T13:00:15;73.07;;;29.97;;
21170;SDS011;10743;52.160;20.910;2022-12-18T13:03:03;73.23;;;27.80;;
21170;SDS011;10743;52.160;20.910;2022-12-18T13:06:37;54.67;;;22.00;;
21170;SDS011;10743;52.160;20.910;2022-12-18T13:08:59;50.57;;;21.43;;
21170;SDS011;10743;52.160;20.910;2022-12-18T13:11:32;54.00;;;22.77;;
21170;SDS011;10743;52.160;20.910;2022-12-18T13:20:03;54.93;;;21.50;;
21170;SDS011;10743;52.160;20.910;2022-12-18T13:22:35;54.13;;;20.33;;
21170;SDS011;10743;52.160;20.910;2022-12-18T13:25:30;60.10;;;23.43;;
21170;SDS011;10743;52.160;20.910;2022-12-18T13:41:04;50.53;;;20.37;;
21170;SDS011;10743;52.160;20.910;2022-12-18T13:43:52;48.30;;;19.57;;
21170;SDS011;10743;52.160;20.910;2022-12-18T13:46:44;53.10;;;20.63;;
21170;SDS011;10743;52.160;20.910;2022-12-18T13:51:49;49.63;;;20.90;;
21170;SDS011;10743;52.160;20.910;2022-12-18T13:54:33;50.37;;;20.60;;
21170;SDS011;10743;52.160;20.910;2022-12-18T13:57:03;56.77;;;22.00;;
21170;SDS011;10743;52.160;20.910;2022-12-18T13:59:50;56.70;;;22.13;;
21170;SDS011;10743;52.160;20.910;2022-12-18T14:02:20;52.30;;;20.73;;
21170;SDS011;10743;52.160;20.910;2022-12-18T14:04:51;51.37;;;19.03;;
21170;SDS011;10743;52.160;20.910;2022-12-18T14:07:21;47.77;;;19.80;;
21170;SDS011;10743;52.160;20.910;2022-12-18T14:09:52;56.83;;;21.50;;
21170;SDS011;10743;52.160;20.910;2022-12-18T14:12:49;53.70;;;21.23;;
21170;SDS011;10743;52.160;20.910;2022-12-18T14:15:31;50.90;;;20.33;;
21170;SDS011;10743;52.160;20.910;2022-12-18T14:21:06;62.33;;;24.93;;
21170;SDS011;10743;52.160;20.910;2022-12-18T14:23:43;52.83;;;21.33;;
21170;SDS011;10743;52.160;20.910;2022-12-18T14:28:55;58.53;;;23.30;;
21170;SDS011;10743;52.160;20.910;2022-12-18T14:31:27;113.73;;;42.07;;
21170;SDS011;10743;52.160;20.910;2022-12-18T14:33:56;126.30;;;45.67;;
21170;SDS011;10743;52.160;20.910;2022-12-18T14:36:24;60.27;;;21.57;;
21170;SDS011;10743;52.160;20.910;2022-12-18T14:38:55;115.37;;;40.20;;
21170;SDS011;10743;52.160;20.910;2022-12-18T14:41:24;81.33;;;30.23;;
21170;SDS011;10743;52.160;20.910;2022-12-18T14:43:53;87.90;;;30.27;;
21170;SDS011;10743;52.160;20.910;2022-12-18T14:46:36;323.58;;;208.48;;
21170;SDS011;10743;52.160;20.910;2022-12-18T14:52:04;266.10;;;178.67;;
21170;SDS011;10743;52.160;20.910;2022-12-18T14:55:00;199.43;;;117.67;;
21170;SDS011;10743;52.160;20.910;2022-12-18T14:57:32;168.80;;;94.03;;
21170;SDS011;10743;52.160;20.910;2022-12-18T15:00:05;187.80;;;134.80;;
21170;SDS011;10743;52.160;20.910;2022-12-18T15:02:34;154.03;;;76.53;;
21170;SDS011;10743;52.160;20.910;2022-12-18T15:07:45;107.33;;;88.80;;
21170;SDS011;10743;52.160;20.910;2022-12-18T15:23:36;85.67;;;58.37;;
21170;SDS011;10743;52.160;20.910;2022-12-18T15:26:11;62.53;;;41.63;;
21170;SDS011;10743;52.160;20.910;2022-12-18T15:28:45;85.13;;;71.13;;
21170;SDS011;10743;52.160;20.910;2022-12-18T15:31:28;82.60;;;50.40;;
21170;SDS011;10743;52.160;20.910;2022-12-18T15:36:25;84.17;;;67.53;;
21170;SDS011;10743;52.160;20.910;2022-12-18T15:38:54;79.50;;;45.83;;
21170;SDS011;10743;52.160;20.910;2022-12-18T15:41:32;92.70;;;74.33;;
21170;SDS011;10743;52.160;20.910;2022-12-18T15:44:02;83.27;;;59.40;;
21170;SDS011;10743;52.160;20.910;2022-12-18T15:46:41;73.77;;;42.40;;
21170;SDS011;10743;52.160;20.910;2022-12-18T15:49:08;108.10;;;92.73;;
21170;SDS011;10743;52.160;20.910;2022-12-18T15:51:37;89.13;;;47.63;;
21170;SDS011;10743;52.160;20.910;2022-12-18T15:54:06;91.50;;;48.63;;
21170;SDS011;10743;52.160;20.910;2022-12-18T15:56:40;108.43;;;50.80;;
21170;SDS011;10743;52.160;20.910;2022-12-18T15:59:25;152.20;;;67.57;;
21170;SDS011;10743;52.160;20.910;2022-12-18T16:01:53;160.37;;;88.67;;
21170;SDS011;10743;52.160;20.910;2022-12-18T16:04:21;171.47;;;92.87;;
21170;SDS011;10743;52.160;20.910;2022-12-18T16:06:49;201.70;;;119.03;;
21170;SDS011;10743;52.160;20.910;2022-12-18T16:09:37;191.13;;;91.37;;
21170;SDS011;10743;52.160;20.910;2022-12-18T16:12:06;225.80;;;107.93;;
21170;SDS011;10743;52.160;20.910;2022-12-18T16:14:49;194.77;;;95.53;;
21170;SDS011;10743;52.160;20.910;2022-12-18T16:17:17;177.33;;;79.27;;
21170;SDS011;10743;52.160;20.910;2022-12-18T16:19:44;187.10;;;95.87;;
21170;SDS011;10743;52.160;20.910;2022-12-18T16:22:19;196.60;;;88.37;;
21170;SDS011;10743;52.160;20.910;2022-12-18T16:24:54;211.63;;;135.40;;
21170;SDS011;10743;52.160;20.910;2022-12-18T16:27:23;174.00;;;75.93;;
21170;SDS011;10743;52.160;20.910;2022-12-18T16:29:51;189.80;;;74.40;;